createdAt,value
2022-08-25T00:00:54.696Z,5363
2022-08-25T00:02:55.104Z,6719
2022-08-25T00:03:54.685Z,6303
2022-08-25T00:04:54.651Z,4897
2022-08-25T00:05:54.671Z,4813
2022-08-25T00:07:54.894Z,6405
2022-08-25T00:08:54.692Z,6918
2022-08-25T00:09:54.697Z,7113
2022-08-25T00:11:00.367Z,6918
2022-08-25T00:12:54.929Z,6918
2022-08-25T00:13:54.696Z,6790
2022-08-25T00:14:54.697Z,6719
2022-08-25T00:15:54.702Z,5212
2022-08-25T00:17:54.869Z,5322
2022-08-25T00:18:54.657Z,6918
2022-08-25T00:19:54.690Z,6790
2022-08-25T00:20:54.698Z,6918
2022-08-25T00:22:54.839Z,6971
2022-08-25T00:23:54.692Z,7187
2022-08-25T00:24:54.691Z,4997
2022-08-25T00:25:54.700Z,6575
2022-08-25T00:27:54.829Z,6856
2022-08-25T00:28:57.005Z,6790
2022-08-25T00:29:54.689Z,6971
2022-08-25T00:30:54.713Z,5079
2022-08-25T00:32:55.521Z,6971
2022-08-25T00:33:54.723Z,6938
2022-08-25T00:34:54.658Z,6575
2022-08-25T00:35:54.670Z,6790
2022-08-25T00:37:54.845Z,5237
2022-08-25T00:38:54.739Z,5723
2022-08-25T00:39:54.764Z,5799
2022-08-25T00:40:54.702Z,5906
2022-08-25T00:42:54.900Z,5934
2022-08-25T00:43:54.741Z,5923
2022-08-25T00:44:54.715Z,6065
2022-08-25T00:45:54.735Z,6344
2022-08-25T00:47:54.871Z,6243
2022-08-25T00:48:54.712Z,4826
2022-08-25T00:49:54.667Z,4734
2022-08-25T00:50:54.712Z,4854
2022-08-25T00:52:54.856Z,4635
2022-08-25T00:53:54.734Z,4926
2022-08-25T00:54:54.705Z,6405
2022-08-25T00:55:54.742Z,4198
2022-08-25T00:57:54.857Z,4372
2022-08-25T00:58:54.739Z,4582
2022-08-25T00:59:54.672Z,6128
2022-08-25T01:00:54.714Z,5946
2022-08-25T01:02:54.894Z,6065
2022-08-25T01:03:54.722Z,4042
2022-08-25T01:04:54.715Z,6140
2022-08-25T01:05:54.678Z,6099
2022-08-25T01:08:00.282Z,6099
2022-08-25T01:08:54.683Z,5889
2022-08-25T01:09:54.684Z,5963
2022-08-25T01:10:54.716Z,4675
2022-08-25T01:12:54.856Z,4591
2022-08-25T01:13:54.715Z,4470
2022-08-25T01:14:54.675Z,5729
2022-08-25T01:15:54.735Z,5778
2022-08-25T01:17:54.875Z,5729
2022-08-25T01:18:54.720Z,5832
2022-08-25T01:19:54.734Z,5873
2022-08-25T01:20:54.723Z,5980
2022-08-25T01:22:55.179Z,5832
2022-08-25T01:23:54.724Z,4756
2022-08-25T01:24:54.737Z,5729
2022-08-25T01:25:54.725Z,6140
2022-08-25T01:27:54.934Z,6140
2022-08-25T01:28:54.721Z,6177
2022-08-25T01:29:54.735Z,6177
2022-08-25T01:30:54.708Z,6332
2022-08-25T01:32:54.885Z,5001
2022-08-25T01:33:54.692Z,4470
2022-08-25T01:34:54.749Z,3765
2022-08-25T01:35:54.731Z,5690
2022-08-25T01:37:54.925Z,5636
2022-08-25T01:38:54.690Z,6243
2022-08-25T01:39:54.725Z,6128
2022-08-25T01:40:54.698Z,6297
2022-08-25T01:42:54.943Z,6243
2022-08-25T01:43:54.701Z,5723
2022-08-25T01:44:54.735Z,4940
2022-08-25T01:45:54.781Z,5723
2022-08-25T01:47:54.880Z,5906
2022-08-25T01:48:54.697Z,4926
2022-08-25T01:49:54.769Z,5873
2022-08-25T01:50:54.741Z,4560
2022-08-25T01:52:54.948Z,5986
2022-08-25T01:53:54.740Z,5509
2022-08-25T01:54:54.707Z,5844
2022-08-25T01:55:54.738Z,5873
2022-08-25T01:57:54.874Z,4591
2022-08-25T01:58:54.758Z,4492
2022-08-25T01:59:54.774Z,4423
2022-08-25T02:00:54.775Z,4423
2022-08-25T02:02:55.567Z,4582
2022-08-25T02:03:54.721Z,4026
2022-08-25T02:04:54.777Z,4826
2022-08-25T02:05:54.805Z,4734
2022-08-25T02:07:54.891Z,4826
2022-08-25T02:08:54.750Z,6140
2022-08-25T02:09:54.759Z,6297
2022-08-25T02:10:54.707Z,6467
2022-08-25T02:12:54.891Z,4789
2022-08-25T02:13:54.713Z,5980
2022-08-25T02:14:54.749Z,5946
2022-08-25T02:15:54.711Z,6021
2022-08-25T02:17:54.973Z,5353
2022-08-25T02:18:54.751Z,6083
2022-08-25T02:19:54.780Z,4053
2022-08-25T02:20:54.761Z,4766
2022-08-25T02:22:56.667Z,6140
2022-08-25T02:23:54.715Z,6219
2022-08-25T02:24:54.709Z,6424
2022-08-25T02:25:54.795Z,6083
2022-08-25T02:27:54.914Z,6116
2022-08-25T02:28:54.717Z,6116
2022-08-25T02:29:54.730Z,6219
2022-08-25T02:31:00.168Z,4854
2022-08-25T02:32:54.923Z,6159
2022-08-25T02:33:54.761Z,6116
2022-08-25T02:34:54.758Z,5963
2022-08-25T02:35:54.767Z,3792
2022-08-25T02:37:54.923Z,5404
2022-08-25T02:38:54.721Z,5799
2022-08-25T02:39:54.807Z,5690
2022-08-25T02:40:54.777Z,4372
2022-08-25T02:42:54.910Z,5729
2022-08-25T02:43:54.774Z,5832
2022-08-25T02:44:54.774Z,6021
2022-08-25T02:45:54.806Z,5946
2022-08-25T02:47:54.994Z,5980
2022-08-25T02:48:54.772Z,5658
2022-08-25T02:49:54.731Z,3727
2022-08-25T02:50:54.809Z,4444
2022-08-25T02:52:54.925Z,4381
2022-08-25T02:53:54.732Z,5729
2022-08-25T02:54:54.770Z,5856
2022-08-25T02:55:54.783Z,5658
2022-08-25T02:57:55.004Z,4393
2022-08-25T02:58:54.770Z,5906
2022-08-25T02:59:54.733Z,5856
2022-08-25T03:00:54.829Z,5690
2022-08-25T03:02:54.978Z,4470
2022-08-25T03:03:54.783Z,4402
2022-08-25T03:04:55.107Z,5762
2022-08-25T03:05:54.779Z,3861
2022-08-25T03:07:54.918Z,4274
2022-08-25T03:08:54.777Z,4470
2022-08-25T03:09:54.743Z,5593
2022-08-25T03:10:54.745Z,4234
2022-08-25T03:12:54.923Z,5620
2022-08-25T03:13:54.774Z,5566
2022-08-25T03:14:54.738Z,4210
2022-08-25T03:15:54.814Z,4274
2022-08-25T03:17:54.933Z,5466
2022-08-25T03:18:54.742Z,4182
2022-08-25T03:19:54.777Z,4274
2022-08-25T03:20:54.788Z,5466
2022-08-25T03:22:54.928Z,4150
2022-08-25T03:23:54.795Z,4274
2022-08-25T03:24:54.740Z,5509
2022-08-25T03:25:54.785Z,5509
2022-08-25T03:27:54.981Z,5636
2022-08-25T03:28:54.748Z,5620
2022-08-25T03:29:54.790Z,4294
2022-08-25T03:30:55.762Z,5252
2022-08-25T03:32:54.972Z,5525
2022-08-25T03:33:54.753Z,5440
2022-08-25T03:34:54.757Z,5525
2022-08-25T03:35:54.795Z,4222
2022-08-25T03:37:55.003Z,5440
2022-08-25T03:38:54.794Z,4262
2022-08-25T03:39:54.867Z,5232
2022-08-25T03:40:54.789Z,4262
2022-08-25T03:42:54.934Z,4262
2022-08-25T03:43:54.801Z,5566
2022-08-25T03:44:54.757Z,5466
2022-08-25T03:45:54.856Z,5690
2022-08-25T03:47:54.939Z,5101
2022-08-25T03:48:54.800Z,4254
2022-08-25T03:49:54.753Z,5658
2022-08-25T03:50:54.845Z,5509
2022-08-25T03:52:54.966Z,4734
2022-08-25T03:53:54.795Z,5466
2022-08-25T03:54:54.806Z,4393
2022-08-25T03:55:54.811Z,5466
2022-08-25T03:57:54.961Z,5566
2022-08-25T03:58:54.802Z,5466
2022-08-25T03:59:54.817Z,4222
2022-08-25T04:00:54.807Z,5566
2022-08-25T04:02:55.012Z,5620
2022-08-25T04:03:54.764Z,5541
2022-08-25T04:04:54.776Z,5541
2022-08-25T04:05:54.769Z,4323
2022-08-25T04:07:54.963Z,4766
2022-08-25T04:08:54.811Z,4210
2022-08-25T04:09:54.810Z,5494
2022-08-25T04:10:54.835Z,5674
2022-08-25T04:12:54.953Z,5620
2022-08-25T04:13:54.873Z,4254
2022-08-25T04:14:54.813Z,5566
2022-08-25T04:15:54.842Z,5182
2022-08-25T04:17:54.961Z,4335
2022-08-25T04:18:54.844Z,5566
2022-08-25T04:19:54.813Z,5778
2022-08-25T04:20:54.774Z,4360
2022-08-25T04:22:54.954Z,5541
2022-08-25T04:23:54.821Z,5466
2022-08-25T04:24:54.821Z,5322
2022-08-25T04:25:54.783Z,3546
2022-08-25T04:27:54.963Z,5620
2022-08-25T04:28:54.854Z,3968
2022-08-25T04:29:54.812Z,5217
2022-08-25T04:30:54.825Z,4743
2022-08-25T04:32:54.965Z,5414
2022-08-25T04:33:54.861Z,5566
2022-08-25T04:34:54.836Z,4319
2022-08-25T04:35:54.780Z,4423
2022-08-25T04:37:54.964Z,3656
2022-08-25T04:38:54.834Z,4234
2022-08-25T04:39:54.908Z,5494
2022-08-25T04:40:54.838Z,5414
2022-08-25T04:42:55.018Z,4286
2022-08-25T04:43:54.787Z,4286
2022-08-25T04:44:54.797Z,5566
2022-08-25T04:45:54.868Z,5509
2022-08-25T04:47:55.219Z,5620
2022-08-25T04:48:54.832Z,5494
2022-08-25T04:49:54.847Z,4262
2022-08-25T04:50:54.835Z,4150
2022-08-25T04:52:54.973Z,4879
2022-08-25T04:53:54.834Z,3765
2022-08-25T04:54:54.875Z,5440
2022-08-25T04:55:54.842Z,3529
2022-08-25T04:57:55.044Z,4893
2022-08-25T04:58:54.792Z,3898
2022-08-25T04:59:54.789Z,3861
2022-08-25T05:00:54.845Z,3803
2022-08-25T05:02:55.040Z,4854
2022-08-25T05:03:54.833Z,5126
2022-08-25T05:04:54.803Z,4721
2022-08-25T05:05:54.796Z,4879
2022-08-25T05:07:54.980Z,4916
2022-08-25T05:08:54.870Z,4964
2022-08-25T05:09:54.844Z,3284
2022-08-25T05:10:54.852Z,3872
2022-08-25T05:12:55.007Z,3792
2022-08-25T05:13:54.847Z,4854
2022-08-25T05:14:54.914Z,4789
2022-08-25T05:15:54.872Z,3563
2022-08-25T05:17:56.050Z,4622
2022-08-25T05:18:54.873Z,4721
2022-08-25T05:19:54.852Z,4721
2022-08-25T05:20:54.808Z,4360
2022-08-25T05:22:54.993Z,4813
2022-08-25T05:23:54.811Z,3712
2022-08-25T05:24:54.851Z,3315
2022-08-25T05:25:54.853Z,4902
2022-08-25T05:27:55.000Z,3663
2022-08-25T05:28:54.817Z,4987
2022-08-25T05:29:54.817Z,4987
2022-08-25T05:30:54.809Z,3776
2022-08-25T05:32:54.998Z,5036
2022-08-25T05:33:54.851Z,4813
2022-08-25T05:34:54.819Z,3414
2022-08-25T05:35:54.838Z,4675
2022-08-25T05:37:55.057Z,4711
2022-08-25T05:38:54.859Z,4613
2022-08-25T05:39:54.977Z,3553
2022-08-25T05:40:54.872Z,3656
2022-08-25T05:42:55.017Z,4254
2022-08-25T05:43:54.888Z,4926
2022-08-25T05:44:54.866Z,4893
2022-08-25T05:45:54.918Z,4893
2022-08-25T05:47:55.007Z,3872
2022-08-25T05:48:54.863Z,4964
2022-08-25T05:49:54.873Z,4803
2022-08-25T05:50:54.868Z,4916
2022-08-25T05:52:55.088Z,3681
2022-08-25T05:53:54.876Z,3563
2022-08-25T05:54:54.827Z,4360
2022-08-25T05:55:54.855Z,3062
2022-08-25T05:57:55.028Z,4525
2022-08-25T05:58:54.827Z,4648
2022-08-25T05:59:54.905Z,4711
2022-08-25T06:00:54.923Z,3671
2022-08-25T06:02:55.011Z,3529
2022-08-25T06:03:54.985Z,4294
2022-08-25T06:04:54.895Z,4254
2022-08-25T06:05:54.827Z,3252
2022-08-25T06:07:55.073Z,3209
2022-08-25T06:08:54.832Z,4198
2022-08-25T06:09:54.873Z,4142
2022-08-25T06:10:54.831Z,4142
2022-08-25T06:12:55.018Z,4142
2022-08-25T06:13:54.882Z,4307
2022-08-25T06:14:54.885Z,4186
2022-08-25T06:15:54.935Z,4014
2022-08-25T06:17:59.021Z,4274
2022-08-25T06:18:54.874Z,4222
2022-08-25T06:19:54.880Z,4198
2022-08-25T06:20:54.872Z,3284
2022-08-25T06:22:55.025Z,4198
2022-08-25T06:23:54.840Z,3948
2022-08-25T06:24:54.846Z,2836
2022-08-25T06:25:54.890Z,4075
2022-08-25T06:27:55.026Z,3155
2022-08-25T06:28:54.916Z,4075
2022-08-25T06:29:55.101Z,4026
2022-08-25T06:30:54.842Z,3049
2022-08-25T06:32:55.027Z,3948
2022-08-25T06:33:54.882Z,3645
2022-08-25T06:34:54.890Z,2877
2022-08-25T06:35:54.848Z,2864
2022-08-25T06:37:55.133Z,3553
2022-08-25T06:38:54.863Z,3738
2022-08-25T06:39:54.928Z,3738
2022-08-25T06:40:54.897Z,3663
2022-08-25T06:42:55.090Z,2823
2022-08-25T06:43:56.027Z,2869
2022-08-25T06:44:54.895Z,2725
2022-08-25T06:45:54.911Z,3529
2022-08-25T06:47:55.038Z,3582
2022-08-25T06:48:54.896Z,2815
2022-08-25T06:49:54.902Z,3681
2022-08-25T06:50:54.910Z,2775
2022-08-25T06:52:55.123Z,3635
2022-08-25T06:53:54.862Z,2576
2022-08-25T06:54:54.894Z,3131
2022-08-25T06:55:54.896Z,3482
2022-08-25T06:57:55.239Z,2620
2022-08-25T06:58:54.926Z,3122
2022-08-25T06:59:54.934Z,3663
2022-08-25T07:00:54.953Z,3485
2022-08-25T07:02:55.066Z,3405
2022-08-25T07:03:54.912Z,3485
2022-08-25T07:04:54.861Z,2652
2022-08-25T07:05:54.863Z,2605
2022-08-25T07:07:55.164Z,2576
2022-08-25T07:08:54.905Z,2476
2022-08-25T07:09:54.917Z,3299
2022-08-25T07:10:54.868Z,3274
2022-08-25T07:12:55.045Z,2506
2022-08-25T07:13:54.864Z,2148
2022-08-25T07:15:03.963Z,3258
2022-08-25T07:15:54.909Z,3258
2022-08-25T07:17:55.050Z,3324
2022-08-25T07:18:54.922Z,2576
2022-08-25T07:19:57.535Z,3443
2022-08-25T07:20:54.925Z,2668
2022-08-25T07:22:55.141Z,3443
2022-08-25T07:23:54.912Z,2760
2022-08-25T07:24:54.874Z,3519
2022-08-25T07:25:54.886Z,3431
2022-08-25T07:27:58.655Z,2576
2022-08-25T07:28:54.942Z,3225
2022-08-25T07:29:54.927Z,2732
2022-08-25T07:30:54.878Z,2979
2022-08-25T07:32:55.280Z,3203
2022-08-25T07:33:54.921Z,2494
2022-08-25T07:34:54.929Z,2476
2022-08-25T07:35:54.878Z,3188
2022-08-25T07:37:55.060Z,2549
2022-08-25T07:38:54.952Z,3155
2022-08-25T07:39:54.957Z,2336
2022-08-25T07:40:56.950Z,3092
2022-08-25T07:42:55.064Z,3032
2022-08-25T07:43:54.926Z,2201
2022-08-25T07:44:54.932Z,1982
2022-08-25T07:45:54.936Z,3055
2022-08-25T07:47:55.069Z,3131
2022-08-25T07:48:54.963Z,3188
2022-08-25T07:49:54.888Z,3122
2022-08-25T07:50:54.900Z,2401
2022-08-25T07:52:55.658Z,3188
2022-08-25T07:53:54.888Z,2556
2022-08-25T07:54:54.942Z,2516
2022-08-25T07:55:54.961Z,3149
2022-08-25T07:57:56.305Z,2815
2022-08-25T07:58:54.930Z,3008
2022-08-25T07:59:54.960Z,2246
2022-08-25T08:00:54.934Z,2152
2022-08-25T08:02:55.165Z,2186
2022-08-25T08:03:55.039Z,2681
2022-08-25T08:04:54.893Z,2030
2022-08-25T08:05:54.940Z,2775
2022-08-25T08:07:55.078Z,2112
2022-08-25T08:08:54.917Z,2699
2022-08-25T08:10:05.409Z,1996
2022-08-25T08:11:04.419Z,2036
2022-08-25T08:12:55.079Z,2060
2022-08-25T08:13:54.949Z,1777
2022-08-25T08:14:54.969Z,2661
2022-08-25T08:15:55.017Z,2355
2022-08-25T08:17:55.093Z,1947
2022-08-25T08:18:54.948Z,2710
2022-08-25T08:19:54.902Z,2094
2022-08-25T08:20:54.952Z,2807
2022-08-25T08:22:55.094Z,2739
2022-08-25T08:23:58.662Z,2016
2022-08-25T08:24:56.323Z,1853
2022-08-25T08:25:54.981Z,2620
2022-08-25T08:27:55.309Z,1562
2022-08-25T08:28:54.910Z,2516
2022-08-25T08:29:54.951Z,1937
2022-08-25T08:30:54.961Z,2499
2022-08-25T08:33:09.969Z,2489
2022-08-25T08:33:54.913Z,1763
2022-08-25T08:34:54.919Z,2311
2022-08-25T08:35:54.954Z,2330
2022-08-25T08:37:55.103Z,1777
2022-08-25T08:38:54.955Z,2267
2022-08-25T08:39:54.943Z,1702
2022-08-25T08:40:54.918Z,2253
2022-08-25T08:42:55.099Z,1756
2022-08-25T08:43:54.973Z,2408
2022-08-25T08:44:56.144Z,2432
2022-08-25T08:45:54.965Z,1848
2022-08-25T08:47:55.161Z,2605
2022-08-25T08:48:54.974Z,1848
2022-08-25T08:49:54.968Z,2494
2022-08-25T08:50:54.919Z,2523
2022-08-25T08:52:55.113Z,1905
2022-08-25T08:53:54.960Z,1826
2022-08-25T08:54:54.923Z,2418
2022-08-25T08:55:54.978Z,2394
2022-08-25T08:57:55.212Z,2372
2022-08-25T08:58:54.972Z,2382
2022-08-25T08:59:54.931Z,2070
2022-08-25T09:00:55.001Z,2469
2022-08-25T09:02:55.210Z,2542
2022-08-25T09:03:55.468Z,2408
2022-08-25T09:04:54.975Z,1740
2022-08-25T09:05:54.931Z,2382
2022-08-25T09:07:55.224Z,2408
2022-08-25T09:08:54.975Z,1565
2022-08-25T09:09:54.944Z,1756
2022-08-25T09:10:55.017Z,2106
2022-08-25T09:12:55.172Z,2106
2022-08-25T09:13:54.941Z,1577
2022-08-25T09:14:54.975Z,1596
2022-08-25T09:15:55.014Z,2201
2022-08-25T09:17:55.131Z,2210
2022-08-25T09:18:54.979Z,1987
2022-08-25T09:19:54.944Z,1987
2022-08-25T09:20:54.938Z,1870
2022-08-25T09:22:55.124Z,2064
2022-08-25T09:23:54.938Z,2205
2022-08-25T09:24:54.983Z,1620
2022-08-25T09:25:54.981Z,1553
2022-08-25T09:27:55.124Z,1519
2022-08-25T09:28:54.943Z,2030
2022-08-25T09:29:54.958Z,1803
2022-08-25T09:30:55.076Z,1937
2022-08-25T09:32:55.129Z,1380
2022-08-25T09:33:55.001Z,1059
2022-08-25T09:34:54.943Z,1282
2022-08-25T09:35:55.017Z,1756
2022-08-25T09:37:55.139Z,1711
2022-08-25T09:38:54.992Z,1247
2022-08-25T09:39:55.021Z,1195
2022-08-25T09:40:55.022Z,1581
2022-08-25T09:42:58.161Z,1666
2022-08-25T09:43:55.010Z,1706
2022-08-25T09:44:54.999Z,1649
2022-08-25T09:45:55.051Z,1731
2022-08-25T09:47:55.198Z,1731
2022-08-25T09:48:56.198Z,1720
2022-08-25T09:49:55.003Z,1720
2022-08-25T09:50:54.960Z,1694
2022-08-25T09:52:55.141Z,1808
2022-08-25T09:53:55.004Z,1928
2022-08-25T09:54:54.962Z,2070
2022-08-25T09:55:59.798Z,2100
2022-08-25T09:57:55.169Z,2246
2022-08-25T09:58:55.008Z,2106
2022-08-25T09:59:57.727Z,1635
2022-08-25T10:00:55.014Z,2220
2022-08-25T10:02:55.207Z,2220
2022-08-25T10:03:54.982Z,1711
2022-08-25T10:04:55.141Z,2080
2022-08-25T10:05:56.145Z,2516
2022-08-25T10:07:55.146Z,2638
2022-08-25T10:08:55.008Z,1877
2022-08-25T10:09:54.969Z,1877
2022-08-25T10:10:55.013Z,1919
2022-08-25T10:12:55.154Z,2885
2022-08-25T10:13:55.042Z,2869
2022-08-25T10:14:55.014Z,2158
2022-08-25T10:15:55.016Z,2112
2022-08-25T10:17:55.153Z,2300
2022-08-25T10:18:55.019Z,2359
2022-08-25T10:19:54.977Z,2336
2022-08-25T10:20:55.055Z,3529
2022-08-25T10:22:55.244Z,2799
2022-08-25T10:23:55.019Z,3872
2022-08-25T10:24:55.025Z,2959
2022-08-25T10:25:58.105Z,4479
2022-08-25T10:27:55.158Z,4688
2022-08-25T10:28:54.977Z,4916
2022-08-25T10:29:55.015Z,5016
2022-08-25T10:30:55.047Z,5322
2022-08-25T10:32:55.225Z,6297
2022-08-25T10:33:54.980Z,5217
2022-08-25T10:34:55.020Z,7915
2022-08-25T10:35:55.051Z,7992
2022-08-25T10:37:55.185Z,5343
2022-08-25T10:38:54.987Z,7992
2022-08-25T10:39:55.579Z,5702
2022-08-25T10:40:55.038Z,5969
2022-08-25T10:42:55.262Z,5696
2022-08-25T10:43:54.992Z,7715
2022-08-25T10:44:54.986Z,5577
2022-08-25T10:45:55.050Z,7634
2022-08-25T10:47:55.167Z,5946
2022-08-25T10:48:54.988Z,7813
2022-08-25T10:49:55.039Z,7806
2022-08-25T10:50:55.048Z,5641
2022-08-25T10:52:55.199Z,5707
2022-08-25T10:53:54.994Z,7604
2022-08-25T10:54:55.041Z,7701
2022-08-25T10:55:54.996Z,7892
2022-08-25T10:57:55.176Z,5810
2022-08-25T10:58:54.997Z,7992
2022-08-25T10:59:55.042Z,6100
2022-08-25T11:00:55.093Z,7907
2022-08-25T11:02:55.178Z,7985
2022-08-25T11:03:55.066Z,7715
2022-08-25T11:04:55.059Z,7992
2022-08-25T11:05:55.000Z,7708
2022-08-25T11:07:55.199Z,5810
2022-08-25T11:08:55.041Z,5861
2022-08-25T11:09:55.041Z,5923
2022-08-25T11:10:55.001Z,7876
2022-08-25T11:12:55.179Z,7985
2022-08-25T11:13:55.005Z,7154
2022-08-25T11:14:55.006Z,7106
2022-08-25T11:17:55.186Z,7236
2022-08-25T11:18:55.051Z,7753
2022-08-25T11:19:55.049Z,7167
2022-08-25T11:20:55.062Z,5980
2022-08-25T11:22:55.191Z,7604
2022-08-25T11:23:55.091Z,7278
2022-08-25T11:24:55.055Z,7440
2022-08-25T11:25:55.054Z,7546
2022-08-25T11:27:55.251Z,5394
2022-08-25T11:28:55.013Z,7922
2022-08-25T11:29:55.012Z,7806
2022-08-25T11:30:55.058Z,7992
2022-08-25T11:32:55.254Z,6998
2022-08-25T11:33:55.094Z,5923
2022-08-25T11:34:55.105Z,6297
2022-08-25T11:35:55.020Z,5069
2022-08-25T11:37:55.196Z,7299
2022-08-25T11:38:55.064Z,6998
2022-08-25T11:39:55.094Z,5419
2022-08-25T11:40:55.073Z,6770
2022-08-25T11:42:55.268Z,6998
2022-08-25T11:43:55.019Z,5582
2022-08-25T11:44:55.194Z,7341
2022-08-25T11:45:55.148Z,7058
2022-08-25T11:47:55.210Z,7058
2022-08-25T11:48:55.068Z,7299
2022-08-25T11:49:55.063Z,5481
2022-08-25T11:50:55.064Z,5162
2022-08-25T11:52:55.217Z,7483
2022-08-25T11:53:55.099Z,6843
2022-08-25T11:54:55.091Z,7341
2022-08-25T11:55:55.077Z,7154
2022-08-25T11:57:55.234Z,5843
2022-08-25T11:58:55.076Z,7426
2022-08-25T11:59:55.029Z,7524
2022-08-25T12:00:55.036Z,7626
2022-08-25T12:02:57.379Z,6099
2022-08-25T12:03:55.155Z,5587
2022-08-25T12:04:55.230Z,7524
2022-08-25T12:05:55.078Z,5739
2022-08-25T12:07:55.213Z,7877
2022-08-25T12:08:57.593Z,7730
2022-08-25T12:09:55.032Z,7992
2022-08-25T12:10:55.082Z,7813
2022-08-25T12:12:55.243Z,7992
2022-08-25T12:13:55.319Z,5531
2022-08-25T12:14:55.122Z,6918
2022-08-25T12:15:55.086Z,6757
2022-08-25T12:17:55.240Z,5307
2022-08-25T12:18:55.087Z,6931
2022-08-25T12:19:55.094Z,6699
2022-08-25T12:20:55.045Z,7018
2022-08-25T12:22:55.425Z,7285
2022-08-25T12:23:55.105Z,5192
2022-08-25T12:24:55.087Z,7813
2022-08-25T12:25:55.049Z,7745
2022-08-25T12:27:55.228Z,6021
2022-08-25T12:28:55.039Z,7348
2022-08-25T12:29:55.111Z,5772
2022-08-25T12:30:55.147Z,7619
2022-08-25T12:32:55.294Z,6699
2022-08-25T12:33:55.093Z,5838
2022-08-25T12:34:55.089Z,5968
2022-08-25T12:35:55.048Z,7813
2022-08-25T12:37:55.235Z,6885
2022-08-25T12:38:55.120Z,7790
2022-08-25T12:39:55.114Z,6083
2022-08-25T12:40:55.114Z,7708
2022-08-25T12:42:55.308Z,7813
2022-08-25T12:43:55.053Z,5451
2022-08-25T12:44:55.058Z,7004
2022-08-25T12:45:55.187Z,5577
2022-08-25T12:47:55.236Z,5504
2022-08-25T12:48:55.115Z,6790
2022-08-25T12:49:55.058Z,6958
2022-08-25T12:50:55.062Z,6876
2022-08-25T12:52:55.354Z,6562
2022-08-25T12:53:55.060Z,5872
2022-08-25T12:54:55.104Z,7243
2022-08-25T12:55:55.137Z,5826
2022-08-25T12:57:55.270Z,5872
2022-08-25T12:59:00.022Z,7783
2022-08-25T12:59:55.067Z,7783
2022-08-25T13:00:56.809Z,6044
2022-08-25T13:02:55.397Z,7783
2022-08-25T13:03:55.138Z,5599
2022-08-25T13:04:55.109Z,7462
2022-08-25T13:05:55.119Z,7133
2022-08-25T13:07:55.239Z,5778
2022-08-25T13:08:56.259Z,7086
2022-08-25T13:09:55.104Z,6610
2022-08-25T13:10:55.117Z,6997
2022-08-25T13:12:55.314Z,7161
2022-08-25T13:13:55.068Z,5307
2022-08-25T13:14:55.086Z,6803
2022-08-25T13:15:55.123Z,7032
2022-08-25T13:17:55.267Z,7032
2022-08-25T13:18:55.108Z,7031
2022-08-25T13:19:55.144Z,6945
2022-08-25T13:20:55.119Z,5451
2022-08-25T13:22:57.326Z,5525
2022-08-25T13:24:01.400Z,7939
2022-08-25T13:24:55.120Z,5604
2022-08-25T13:25:55.143Z,7984
2022-08-25T13:27:55.323Z,7884
2022-08-25T13:28:55.115Z,7483
2022-08-25T13:29:55.126Z,7384
2022-08-25T13:30:55.108Z,6486
2022-08-25T13:32:55.272Z,7113
2022-08-25T13:33:55.083Z,7992
2022-08-25T13:34:55.122Z,7892
2022-08-25T13:35:55.110Z,5734
2022-08-25T13:37:55.257Z,7892
2022-08-25T13:38:55.087Z,6145
2022-08-25T13:39:56.015Z,7985
2022-08-25T13:40:55.146Z,7708
2022-08-25T13:42:56.181Z,6145
2022-08-25T13:43:55.098Z,5481
2022-08-25T13:44:55.123Z,6904
2022-08-25T13:45:55.129Z,6904
2022-08-25T13:47:55.809Z,5207
2022-08-25T13:48:55.085Z,7348
2022-08-25T13:49:56.600Z,7440
2022-08-25T13:50:55.095Z,7348
2022-08-25T13:52:55.324Z,7531
2022-08-25T13:53:55.135Z,6033
2022-08-25T13:54:55.137Z,7737
2022-08-25T13:55:55.090Z,7462
2022-08-25T13:57:55.273Z,5604
2022-08-25T13:58:55.135Z,6904
2022-08-25T13:59:55.141Z,6984
2022-08-25T14:00:55.096Z,6836
2022-08-25T14:02:55.471Z,7154
2022-08-25T14:03:55.182Z,5849
2022-08-25T14:04:55.141Z,7462
2022-08-25T14:05:55.153Z,7737
2022-08-25T14:08:03.768Z,7553
2022-08-25T14:08:55.174Z,5435
2022-08-25T14:09:55.139Z,7201
2022-08-25T14:10:55.147Z,7201
2022-08-25T14:12:55.304Z,5566
2022-08-25T14:13:55.134Z,7376
2022-08-25T14:14:55.175Z,5849
2022-08-25T14:15:55.144Z,7648
2022-08-25T14:17:55.316Z,7376
2022-08-25T14:18:55.142Z,5131
2022-08-25T14:19:55.106Z,6516
2022-08-25T14:20:55.149Z,5131
2022-08-25T14:22:55.306Z,6674
2022-08-25T14:23:55.101Z,5794
2022-08-25T14:24:55.154Z,5663
2022-08-25T14:25:55.145Z,7107
2022-08-25T14:28:07.578Z,7285
2022-08-25T14:28:55.156Z,5832
2022-08-25T14:29:55.110Z,7334
2022-08-25T14:30:55.114Z,5832
2022-08-25T14:32:55.292Z,7334
2022-08-25T14:33:55.153Z,7334
2022-08-25T14:34:55.161Z,5750
2022-08-25T14:35:55.148Z,6810
2022-08-25T14:37:55.296Z,6904
2022-08-25T14:38:55.266Z,7835
2022-08-25T14:39:55.224Z,7884
2022-08-25T14:40:55.175Z,6195
2022-08-25T14:42:55.316Z,7884
2022-08-25T14:43:55.169Z,7752
2022-08-25T14:44:56.159Z,6315
2022-08-25T14:45:55.167Z,6111
2022-08-25T14:47:56.463Z,7693
2022-08-25T14:48:55.280Z,7383
2022-08-25T14:49:55.164Z,7383
2022-08-25T14:50:55.160Z,5734
2022-08-25T14:52:55.306Z,5734
2022-08-25T14:53:55.120Z,7405
2022-08-25T14:54:55.196Z,7229
2022-08-25T14:55:59.240Z,7405
2022-08-25T14:57:55.302Z,7320
2022-08-25T14:58:55.203Z,7497
2022-08-25T14:59:55.175Z,7497
2022-08-25T15:00:55.186Z,7589
2022-08-25T15:02:55.308Z,5969
2022-08-25T15:03:55.221Z,7517
2022-08-25T15:04:55.191Z,5615
2022-08-25T15:05:55.171Z,7229
2022-08-25T15:07:55.330Z,5679
2022-08-25T15:08:55.159Z,5946
2022-08-25T15:09:55.129Z,7671
2022-08-25T15:10:55.198Z,7671
2022-08-25T15:12:55.437Z,7567
2022-08-25T15:13:55.179Z,5810
2022-08-25T15:14:55.192Z,6492
2022-08-25T15:15:55.128Z,5679
2022-08-25T15:17:57.106Z,7229
2022-08-25T15:18:55.133Z,5884
2022-08-25T15:19:55.203Z,6081
2022-08-25T15:20:55.182Z,5679
2022-08-25T15:22:55.318Z,7320
2022-08-25T15:23:56.484Z,7861
2022-08-25T15:24:55.183Z,7954
2022-08-25T15:25:55.177Z,6033
2022-08-25T15:27:55.390Z,6297
2022-08-25T15:28:55.140Z,7257
2022-08-25T15:29:55.146Z,7597
2022-08-25T15:30:55.137Z,7686
2022-08-25T15:32:56.470Z,5907
2022-08-25T15:33:55.183Z,6951
2022-08-25T15:34:55.196Z,6105
2022-08-25T15:35:55.183Z,7531
2022-08-25T15:37:55.327Z,7194
2022-08-25T15:38:55.154Z,4831
2022-08-25T15:39:55.172Z,5723
2022-08-25T15:40:55.178Z,5723
2022-08-25T15:42:55.332Z,7071
2022-08-25T15:43:55.143Z,6622
2022-08-25T15:44:55.222Z,6849
2022-08-25T15:45:55.194Z,5504
2022-08-25T15:47:55.336Z,5504
2022-08-25T15:49:55.226Z,7469
2022-08-25T15:50:55.195Z,5872
2022-08-25T15:52:55.396Z,7383
2022-08-25T15:53:55.155Z,6809
2022-08-25T15:54:55.189Z,6809
2022-08-25T15:55:55.227Z,6809
2022-08-25T15:57:55.421Z,6725
2022-08-25T15:58:55.197Z,4854
2022-08-25T15:59:55.195Z,5054
2022-08-25T16:00:56.081Z,4712
2022-08-25T16:02:55.326Z,6279
2022-08-25T16:03:55.203Z,5440
2022-08-25T16:04:55.202Z,6842
2022-08-25T16:05:55.182Z,6764
2022-08-25T16:07:55.365Z,6555
2022-08-25T16:08:55.160Z,6574
2022-08-25T16:09:55.229Z,5669
2022-08-25T16:10:55.211Z,7099
2022-08-25T16:12:55.420Z,5478
2022-08-25T16:13:55.164Z,6393
2022-08-25T16:14:55.167Z,6255
2022-08-25T16:15:55.223Z,6473
2022-08-25T16:17:55.357Z,6201
2022-08-25T16:18:55.214Z,6016
2022-08-25T16:19:55.218Z,5957
2022-08-25T16:20:55.235Z,5957
2022-08-25T16:22:55.366Z,5901
2022-08-25T16:23:55.217Z,5212
2022-08-25T16:24:55.222Z,4234
2022-08-25T16:25:55.254Z,4591
2022-08-25T16:27:55.355Z,5425
2022-08-25T16:28:55.244Z,5461
2022-08-25T16:29:55.222Z,5252
2022-08-25T16:30:55.229Z,4983
2022-08-25T16:32:55.359Z,5141
2022-08-25T16:33:57.610Z,4963
2022-08-25T16:34:55.177Z,4766
2022-08-25T16:35:55.221Z,4826
2022-08-25T16:37:55.370Z,3663
2022-08-25T16:38:55.228Z,3832
2022-08-25T16:39:55.315Z,3713
2022-08-25T16:40:55.262Z,4410